createdAt,value
2023-03-03T00:02:12.424Z,19.85
2023-03-03T00:04:40.489Z,18.95
2023-03-03T00:07:08.346Z,18.90
2023-03-03T00:09:36.069Z,17.80
2023-03-03T00:12:15.233Z,16.40
2023-03-03T00:14:43.212Z,16.27
2023-03-03T00:17:22.418Z,14.40
2023-03-03T00:19:51.311Z,14.10
2023-03-03T00:22:33.742Z,13.80
2023-03-03T00:25:30.103Z,12.33
2023-03-03T00:28:28.035Z,12.35
2023-03-03T00:30:59.739Z,12.73
2023-03-03T00:33:34.135Z,12.05
2023-03-03T00:36:29.588Z,10.65
2023-03-03T00:39:26.776Z,10.67
2023-03-03T00:41:55.122Z,11.08
2023-03-03T00:44:43.163Z,10.50
2023-03-03T00:47:32.276Z,12.10
2023-03-03T00:50:11.283Z,10.68
2023-03-03T00:52:47.343Z,10.53
2023-03-03T00:55:15.185Z,12.63
2023-03-03T00:57:42.935Z,10.85
2023-03-03T01:00:12.452Z,11.55
2023-03-03T01:02:40.343Z,11.60
2023-03-03T01:05:10.831Z,11.53
2023-03-03T01:07:38.458Z,11.43
2023-03-03T01:10:07.569Z,11.53
2023-03-03T01:12:35.891Z,12.40
2023-03-03T01:15:05.506Z,12.43
2023-03-03T01:17:34.128Z,13.93
2023-03-03T01:20:02.718Z,13.18
2023-03-03T01:22:30.443Z,14.40
2023-03-03T01:25:00.218Z,13.08
2023-03-03T01:27:28.222Z,13.10
2023-03-03T01:29:57.841Z,12.05
2023-03-03T01:32:26.013Z,13.20
2023-03-03T01:34:54.410Z,13.25
2023-03-03T01:37:22.460Z,13.05
2023-03-03T01:39:51.889Z,13.53
2023-03-03T01:42:22.602Z,13.45
2023-03-03T01:45:12.347Z,12.10
2023-03-03T01:48:03.617Z,13.58
2023-03-03T01:50:51.288Z,14.83
2023-03-03T01:53:22.773Z,13.50
2023-03-03T01:55:52.535Z,15.38
2023-03-03T01:58:28.054Z,19.80
2023-03-03T02:01:04.949Z,19.20
2023-03-03T02:03:34.958Z,17.82
2023-03-03T02:06:10.091Z,19.73
2023-03-03T02:09:08.378Z,17.87
2023-03-03T02:11:38.747Z,17.12
2023-03-03T02:14:06.819Z,17.35
2023-03-03T02:16:34.982Z,20.57
2023-03-03T02:19:06.453Z,18.60
2023-03-03T02:21:34.463Z,18.25
2023-03-03T02:24:19.742Z,18.62
2023-03-03T02:26:48.608Z,19.23
2023-03-03T02:29:16.573Z,19.48
2023-03-03T02:31:44.584Z,21.12
2023-03-03T02:34:12.610Z,20.08
2023-03-03T02:36:41.860Z,19.70
2023-03-03T02:39:23.536Z,18.25
2023-03-03T02:42:24.486Z,18.92
2023-03-03T02:44:54.141Z,17.60
2023-03-03T02:47:22.065Z,16.90
2023-03-03T02:49:49.869Z,16.77
2023-03-03T02:52:18.829Z,16.62
2023-03-03T02:54:47.287Z,16.45
2023-03-03T02:57:15.106Z,15.45
2023-03-03T02:59:42.958Z,16.25
2023-03-03T03:02:12.759Z,16.32
2023-03-03T03:04:40.720Z,16.65
2023-03-03T03:07:11.362Z,15.38
2023-03-03T03:09:42.500Z,14.68
2023-03-03T03:12:15.390Z,15.08
2023-03-03T03:14:43.455Z,16.97
2023-03-03T03:17:12.247Z,16.10
2023-03-03T03:19:40.891Z,16.50
2023-03-03T03:22:08.868Z,17.27
2023-03-03T03:24:36.796Z,20.88
2023-03-03T03:27:06.463Z,17.65
2023-03-03T03:29:35.057Z,18.35
2023-03-03T03:32:03.079Z,21.12
2023-03-03T03:34:30.985Z,21.90
2023-03-03T03:36:58.957Z,19.57
2023-03-03T03:39:27.481Z,21.68
2023-03-03T03:41:55.610Z,21.42
2023-03-03T03:44:24.822Z,20.12
2023-03-03T03:46:52.819Z,19.87
2023-03-03T03:49:21.164Z,20.60
2023-03-03T03:51:49.976Z,20.10
2023-03-03T03:54:19.277Z,22.30
2023-03-03T03:56:47.106Z,21.35
2023-03-03T03:59:14.983Z,24.47
2023-03-03T04:01:42.922Z,28.35
2023-03-03T04:04:10.773Z,32.33
2023-03-03T04:06:38.729Z,31.62
2023-03-03T04:09:06.958Z,32.73
2023-03-03T04:11:34.887Z,33.42
2023-03-03T04:14:03.605Z,33.75
2023-03-03T04:16:32.100Z,32.00
2023-03-03T04:19:00.028Z,32.23
2023-03-03T04:21:28.172Z,28.65
2023-03-03T04:23:57.778Z,26.02
2023-03-03T04:26:29.230Z,25.08
2023-03-03T04:29:01.161Z,25.72
2023-03-03T04:31:29.649Z,24.85
2023-03-03T04:33:57.637Z,20.97
2023-03-03T04:36:26.455Z,19.85
2023-03-03T04:38:54.597Z,19.02
2023-03-03T04:41:23.223Z,19.23
2023-03-03T04:43:51.331Z,20.32
2023-03-03T04:46:20.194Z,22.05
2023-03-03T04:48:48.574Z,22.32
2023-03-03T04:51:18.120Z,22.27
2023-03-03T04:53:46.937Z,23.22
2023-03-03T04:56:15.182Z,27.85
2023-03-03T04:58:45.364Z,27.00
2023-03-03T05:01:18.146Z,30.75
2023-03-03T05:03:46.066Z,30.62
2023-03-03T05:06:13.837Z,37.03
2023-03-03T05:08:42.744Z,45.10
2023-03-03T05:11:11.474Z,74.10
2023-03-03T05:13:39.414Z,46.00
2023-03-03T05:16:07.838Z,38.78
2023-03-03T05:18:35.875Z,37.50
2023-03-03T05:21:04.388Z,27.10
2023-03-03T05:23:32.303Z,25.30
2023-03-03T05:26:00.138Z,27.30
2023-03-03T05:28:28.743Z,24.15
2023-03-03T05:30:56.977Z,22.05
2023-03-03T05:33:25.147Z,22.73
2023-03-03T05:35:57.730Z,22.05
2023-03-03T05:38:25.868Z,21.87
2023-03-03T05:40:54.372Z,20.37
2023-03-03T05:43:22.485Z,19.52
2023-03-03T05:45:57.185Z,21.48
2023-03-03T05:48:25.413Z,22.07
2023-03-03T05:50:53.305Z,22.37
2023-03-03T05:53:21.483Z,29.35
2023-03-03T05:55:49.469Z,36.50
2023-03-03T05:58:17.535Z,39.63
2023-03-03T06:00:45.710Z,38.38
2023-03-03T06:03:13.796Z,36.53
2023-03-03T06:05:42.535Z,35.03
2023-03-03T06:08:10.379Z,30.27
2023-03-03T06:10:38.570Z,28.30
2023-03-03T06:13:07.286Z,26.07
2023-03-03T06:15:35.636Z,24.52
2023-03-03T06:18:04.943Z,25.45
2023-03-03T06:20:33.326Z,27.55
2023-03-03T06:23:01.740Z,26.75
2023-03-03T06:25:31.062Z,25.37
2023-03-03T06:27:59.157Z,24.55
2023-03-03T06:30:28.146Z,23.12
2023-03-03T06:32:56.327Z,25.95
2023-03-03T06:35:24.544Z,22.70
2023-03-03T06:37:52.582Z,25.80
2023-03-03T06:40:20.800Z,27.87
2023-03-03T06:42:49.639Z,25.25
2023-03-03T06:45:17.858Z,26.27
2023-03-03T06:47:46.289Z,26.85
2023-03-03T06:50:19.079Z,26.80
2023-03-03T06:52:47.041Z,26.60
2023-03-03T06:55:20.579Z,25.97
2023-03-03T06:57:48.993Z,27.48
2023-03-03T07:00:25.923Z,26.02
2023-03-03T07:03:01.815Z,25.60
2023-03-03T07:05:30.335Z,30.30
2023-03-03T07:07:58.946Z,24.75
2023-03-03T07:10:31.548Z,30.60
2023-03-03T07:13:04.880Z,29.82
2023-03-03T07:15:36.548Z,27.20
2023-03-03T07:18:24.627Z,26.87
2023-03-03T07:20:52.773Z,26.37
2023-03-03T07:23:41.971Z,26.17
2023-03-03T07:26:39.359Z,28.62
2023-03-03T07:29:23.061Z,25.68
2023-03-03T07:31:51.484Z,25.12
2023-03-03T07:34:42.794Z,25.02
2023-03-03T07:37:19.771Z,23.75
2023-03-03T07:39:49.605Z,22.00
2023-03-03T07:42:29.170Z,28.92
2023-03-03T07:45:26.586Z,26.42
2023-03-03T07:48:08.894Z,43.38
2023-03-03T07:50:41.677Z,40.63
2023-03-03T07:53:20.784Z,30.37
2023-03-03T07:55:49.485Z,29.85
2023-03-03T07:58:25.784Z,31.07
2023-03-03T08:01:35.771Z,30.62
2023-03-03T08:04:30.985Z,32.17
2023-03-03T08:07:02.113Z,29.25
2023-03-03T08:09:58.827Z,28.25
2023-03-03T08:12:41.226Z,26.05
2023-03-03T08:15:22.960Z,30.25
2023-03-03T08:17:54.319Z,29.25
2023-03-03T08:20:48.766Z,18.12
2023-03-03T08:23:25.657Z,15.18
2023-03-03T08:25:55.828Z,13.98
2023-03-03T08:28:24.277Z,15.93
2023-03-03T08:31:05.548Z,14.98
2023-03-03T08:33:24.173Z,12.40
2023-03-03T08:35:52.353Z,16.00
2023-03-03T08:38:24.386Z,21.50
2023-03-03T08:40:52.563Z,14.13
2023-03-03T08:43:22.531Z,16.23
2023-03-03T08:45:53.770Z,16.67
2023-03-03T08:48:26.507Z,17.45
2023-03-03T08:50:58.281Z,15.68
2023-03-03T08:53:27.663Z,16.77
2023-03-03T08:55:56.796Z,23.15
2023-03-03T08:58:34.691Z,22.77
2023-03-03T09:00:55.083Z,24.95
2023-03-03T09:03:23.396Z,25.82
2023-03-03T09:05:51.280Z,26.93
2023-03-03T09:08:19.692Z,26.95
2023-03-03T09:10:49.632Z,27.45
2023-03-03T09:13:22.087Z,19.92
2023-03-03T09:15:50.277Z,19.10
2023-03-03T09:18:37.245Z,21.10
2023-03-03T09:21:32.728Z,21.00
2023-03-03T09:24:08.990Z,27.73
2023-03-03T09:26:48.839Z,26.07
2023-03-03T09:29:34.273Z,26.50
2023-03-03T09:32:37.689Z,23.32
2023-03-03T09:35:42.925Z,20.35
2023-03-03T09:38:32.344Z,17.17
2023-03-03T09:41:23.999Z,17.10
2023-03-03T09:44:27.568Z,16.07
2023-03-03T09:47:06.865Z,14.35
2023-03-03T09:50:02.704Z,14.10
2023-03-03T09:53:04.900Z,13.13
2023-03-03T09:55:56.677Z,12.70
2023-03-03T09:58:47.058Z,14.33
2023-03-03T10:01:44.883Z,23.77
2023-03-03T10:04:36.351Z,12.93
2023-03-03T10:07:24.484Z,10.40
2023-03-03T10:10:16.928Z,13.00
2023-03-03T10:13:04.629Z,9.30
2023-03-03T10:16:00.580Z,7.83
2023-03-03T10:21:20.692Z,8.50
2023-03-03T10:23:59.424Z,9.08
2023-03-03T10:27:05.261Z,8.10
2023-03-03T10:29:46.205Z,12.03
2023-03-03T10:32:28.972Z,8.73
2023-03-03T10:35:45.658Z,8.28
2023-03-03T10:38:35.541Z,9.20
2023-03-03T10:41:39.024Z,10.82
2023-03-03T10:44:38.042Z,10.08
2023-03-03T10:47:20.397Z,8.28
2023-03-03T10:50:33.812Z,9.93
2023-03-03T10:53:31.508Z,8.23
2023-03-03T10:56:23.053Z,9.43
2023-03-03T10:59:02.133Z,5.28
2023-03-03T11:02:07.233Z,7.53
2023-03-03T11:05:12.380Z,8.23
2023-03-03T11:07:48.481Z,7.03
2023-03-03T11:10:27.936Z,9.05
2023-03-03T11:13:03.119Z,5.90
2023-03-03T11:15:45.513Z,6.87
2023-03-03T11:18:34.021Z,5.95
2023-03-03T11:21:21.921Z,7.05
2023-03-03T11:24:15.183Z,6.85
2023-03-03T11:27:17.134Z,8.63
2023-03-03T11:30:16.453Z,5.95
2023-03-03T11:32:52.516Z,5.67
2023-03-03T11:35:27.803Z,5.92
2023-03-03T11:40:56.419Z,6.25
2023-03-03T11:43:42.299Z,6.55
2023-03-03T11:49:09.097Z,6.90
2023-03-03T11:52:03.548Z,11.57
2023-03-03T11:54:42.793Z,7.15
2023-03-03T11:57:25.330Z,12.30
2023-03-03T12:00:13.846Z,13.35
2023-03-03T12:03:10.170Z,11.68
2023-03-03T12:05:49.776Z,7.17
2023-03-03T12:08:37.986Z,8.03
2023-03-03T12:11:29.566Z,9.30
2023-03-03T12:14:26.627Z,6.87
2023-03-03T12:17:03.346Z,5.25
2023-03-03T12:19:53.485Z,5.30
2023-03-03T12:22:33.807Z,5.40
2023-03-03T12:25:28.175Z,4.92
2023-03-03T12:28:10.295Z,4.87
2023-03-03T12:31:15.735Z,5.35
2023-03-03T12:33:56.313Z,4.37
2023-03-03T12:36:47.292Z,5.47
2023-03-03T12:39:38.666Z,6.10
2023-03-03T12:42:43.844Z,6.55
2023-03-03T12:45:35.435Z,6.95
2023-03-03T12:48:32.583Z,8.55
2023-03-03T12:51:22.502Z,6.45
2023-03-03T12:54:37.202Z,6.08
2023-03-03T12:57:31.832Z,5.78
2023-03-03T13:00:23.730Z,4.28
2023-03-03T13:03:02.972Z,8.00
2023-03-03T13:06:05.802Z,6.90
2023-03-03T13:09:01.751Z,5.58
2023-03-03T13:14:20.900Z,4.70
2023-03-03T13:16:56.712Z,6.08
2023-03-03T13:19:30.237Z,21.05
2023-03-03T13:22:09.050Z,13.15
2023-03-03T13:24:58.954Z,5.58
2023-03-03T13:27:35.253Z,25.20
2023-03-03T13:30:17.432Z,55.45
2023-03-03T13:32:59.066Z,13.53
2023-03-03T13:35:44.074Z,6.47
2023-03-03T13:38:16.979Z,6.97
2023-03-03T13:40:52.677Z,4.55
2023-03-03T13:43:27.447Z,5.75
2023-03-03T13:46:29.776Z,5.72
2023-03-03T13:49:25.682Z,10.10
2023-03-03T13:55:02.976Z,6.30
2023-03-03T13:57:41.693Z,6.20
2023-03-03T14:00:30.279Z,8.58
2023-03-03T14:03:28.916Z,8.05
2023-03-03T14:06:09.218Z,8.10
2023-03-03T14:08:55.005Z,7.53
2023-03-03T14:14:24.703Z,8.10
2023-03-03T14:17:25.289Z,12.88
2023-03-03T14:20:13.593Z,6.55
2023-03-03T14:22:54.777Z,6.75
2023-03-03T14:25:22.458Z,6.35
2023-03-03T14:28:01.551Z,8.38
2023-03-03T14:30:45.147Z,7.28
2023-03-03T14:33:18.146Z,7.87
2023-03-03T14:36:00.073Z,7.35
2023-03-03T14:38:38.869Z,8.33
2023-03-03T14:41:14.766Z,10.78
2023-03-03T14:44:12.112Z,12.65
2023-03-03T14:46:41.337Z,11.35
2023-03-03T14:49:30.019Z,11.43
2023-03-03T14:52:23.186Z,9.73
2023-03-03T14:54:59.344Z,7.25
2023-03-03T14:57:47.273Z,8.35
2023-03-03T15:00:23.602Z,8.13
2023-03-03T15:03:23.229Z,8.03
2023-03-03T15:05:57.427Z,10.82
2023-03-03T15:08:35.502Z,6.50
2023-03-03T15:11:20.362Z,9.55
2023-03-03T15:13:48.287Z,9.45
2023-03-03T15:16:23.598Z,7.15
2023-03-03T15:19:02.693Z,8.13
2023-03-03T15:21:34.820Z,6.90
2023-03-03T15:24:14.578Z,7.75
2023-03-03T15:26:56.337Z,8.63
2023-03-03T15:29:44.239Z,9.18
2023-03-03T15:32:30.947Z,8.63
2023-03-03T15:35:16.194Z,11.35
2023-03-03T15:37:58.618Z,15.88
2023-03-03T15:40:49.090Z,13.62
2023-03-03T15:43:45.260Z,12.15
2023-03-03T15:46:33.533Z,12.23
2023-03-03T15:49:24.877Z,11.75
2023-03-03T15:52:05.036Z,12.07
2023-03-03T15:55:04.079Z,20.72
2023-03-03T15:57:40.690Z,17.40
2023-03-03T16:00:54.898Z,13.43
2023-03-03T16:03:36.207Z,15.50
2023-03-03T16:06:18.292Z,17.70
2023-03-03T16:09:05.795Z,18.32
2023-03-03T16:12:12.500Z,19.57
2023-03-03T16:15:13.097Z,17.20
2023-03-03T16:18:00.857Z,17.77
2023-03-03T16:20:37.228Z,20.75
2023-03-03T16:23:35.298Z,21.87
2023-03-03T16:26:28.511Z,23.05
2023-03-03T16:29:14.167Z,25.08
2023-03-03T16:31:59.405Z,43.55
2023-03-03T16:34:32.552Z,36.33
2023-03-03T16:37:31.789Z,29.18
2023-03-03T16:40:24.605Z,32.73
2023-03-03T16:43:16.103Z,31.68
2023-03-03T16:45:47.312Z,27.02
2023-03-03T16:48:47.302Z,29.92
2023-03-03T16:51:46.049Z,31.25
2023-03-03T16:54:57.341Z,29.63
2023-03-03T16:57:47.998Z,32.03
2023-03-03T17:00:23.429Z,40.55
2023-03-03T17:03:24.714Z,55.70
2023-03-03T17:06:03.689Z,83.07
2023-03-03T17:09:02.285Z,85.22
2023-03-03T17:11:39.011Z,94.22
2023-03-03T17:14:18.729Z,83.00
2023-03-03T17:17:16.788Z,77.03
2023-03-03T17:19:56.894Z,89.67
2023-03-03T17:23:01.179Z,81.32
2023-03-03T17:25:57.380Z,64.65
2023-03-03T17:29:06.501Z,58.92
2023-03-03T17:31:46.682Z,63.92
2023-03-03T17:34:40.454Z,59.93
2023-03-03T17:37:33.861Z,67.47
2023-03-03T17:40:16.386Z,75.05
2023-03-03T17:42:55.896Z,73.15
2023-03-03T17:45:27.831Z,51.58
2023-03-03T17:48:10.229Z,48.87
2023-03-03T17:50:43.394Z,40.00
2023-03-03T17:53:37.638Z,39.55
2023-03-03T17:56:13.493Z,35.33
2023-03-03T17:59:04.446Z,32.60
2023-03-03T18:02:03.495Z,33.18
2023-03-03T18:04:56.999Z,35.68
2023-03-03T18:07:48.091Z,51.77
2023-03-03T18:10:42.977Z,45.15
2023-03-03T18:13:33.695Z,45.60
2023-03-03T18:16:19.424Z,48.52
2023-03-03T18:19:21.931Z,43.40
2023-03-03T18:22:07.223Z,40.20
2023-03-03T18:24:43.145Z,40.55
2023-03-03T18:27:37.128Z,42.08
2023-03-03T18:30:24.368Z,37.60
2023-03-03T18:33:00.850Z,36.53
2023-03-03T18:35:45.447Z,45.43
2023-03-03T18:38:29.108Z,65.20
2023-03-03T18:41:01.181Z,66.17
2023-03-03T18:43:47.863Z,71.30
2023-03-03T18:46:27.716Z,77.22
2023-03-03T18:49:08.818Z,77.12
2023-03-03T18:51:46.868Z,71.92
2023-03-03T18:54:25.024Z,69.70
2023-03-03T18:57:03.416Z,78.33
2023-03-03T18:59:40.564Z,85.75
2023-03-03T19:02:38.482Z,84.07
2023-03-03T19:05:20.407Z,90.42
2023-03-03T19:08:05.094Z,92.10
2023-03-03T19:10:50.363Z,94.10
2023-03-03T19:13:38.209Z,89.03
2023-03-03T19:16:28.128Z,96.97
2023-03-03T19:19:04.303Z,91.17
2023-03-03T19:21:35.437Z,99.75
2023-03-03T19:24:27.391Z,174.77
2023-03-03T19:27:27.381Z,109.42
2023-03-03T19:30:40.756Z,122.95
2023-03-03T19:33:35.331Z,87.67
2023-03-03T19:36:35.976Z,82.47
2023-03-03T19:39:24.032Z,81.12
2023-03-03T19:42:18.074Z,94.85
2023-03-03T19:45:07.336Z,103.20
2023-03-03T19:48:06.577Z,97.70
2023-03-03T19:50:44.846Z,87.15
2023-03-03T19:53:40.585Z,86.10
2023-03-03T19:56:45.754Z,91.72
2023-03-03T19:59:19.226Z,108.20
2023-03-03T20:02:04.265Z,102.82
2023-03-03T20:05:02.044Z,106.12
2023-03-03T20:07:44.163Z,160.65
2023-03-03T20:10:45.666Z,117.95
2023-03-03T20:13:51.311Z,98.00
2023-03-03T20:16:42.218Z,96.23
2023-03-03T20:19:44.218Z,91.53
2023-03-03T20:22:43.493Z,90.85
2023-03-03T20:25:28.930Z,95.80
2023-03-03T20:28:39.689Z,92.67
2023-03-03T20:31:33.440Z,96.55
2023-03-03T20:34:13.092Z,97.85
2023-03-03T20:37:08.221Z,82.70
2023-03-03T20:40:08.995Z,75.52
2023-03-03T20:43:12.665Z,68.45
2023-03-03T20:46:01.021Z,63.92
2023-03-03T20:48:46.542Z,57.33
2023-03-03T20:51:19.666Z,55.65
2023-03-03T20:54:02.310Z,54.08
2023-03-03T20:56:51.021Z,52.43
2023-03-03T20:59:31.119Z,50.48
2023-03-03T21:02:16.919Z,50.40
2023-03-03T21:04:45.317Z,49.85
2023-03-03T21:07:26.475Z,54.13
2023-03-03T21:10:16.931Z,66.70
2023-03-03T21:12:45.180Z,95.12
2023-03-03T21:15:30.187Z,90.92
2023-03-03T21:17:59.662Z,80.53
2023-03-03T21:20:34.894Z,69.42
2023-03-03T21:23:03.400Z,64.00
2023-03-03T21:25:44.380Z,60.95
2023-03-03T21:28:32.440Z,58.65
2023-03-03T21:31:17.760Z,65.85
2023-03-03T21:33:57.707Z,68.42
2023-03-03T21:36:40.284Z,65.12
2023-03-03T21:39:28.568Z,67.50
2023-03-03T21:42:15.634Z,60.45
2023-03-03T21:44:51.316Z,62.20
2023-03-03T21:47:22.383Z,77.25
2023-03-03T21:49:51.975Z,85.42
2023-03-03T21:52:27.642Z,114.77
2023-03-03T21:54:55.726Z,95.67
2023-03-03T21:57:25.582Z,77.45
2023-03-03T21:59:53.765Z,64.77
2023-03-03T22:02:21.663Z,58.40
2023-03-03T22:04:51.479Z,56.00
2023-03-03T22:07:19.209Z,56.05
2023-03-03T22:09:51.254Z,54.15
2023-03-03T22:12:19.105Z,52.17
2023-03-03T22:14:46.721Z,61.83
2023-03-03T22:17:14.940Z,64.55
2023-03-03T22:19:43.106Z,65.87
2023-03-03T22:22:13.893Z,67.03
2023-03-03T22:24:41.710Z,61.95
2023-03-03T22:27:11.697Z,56.25
2023-03-03T22:29:39.771Z,55.58
2023-03-03T22:32:07.506Z,56.73
2023-03-03T22:34:37.530Z,53.33
2023-03-03T22:37:05.272Z,50.17
2023-03-03T22:39:32.933Z,52.83
2023-03-03T22:42:00.694Z,52.15
2023-03-03T22:44:28.621Z,52.83
2023-03-03T22:46:56.709Z,51.58
2023-03-03T22:49:24.591Z,52.35
2023-03-03T22:51:52.668Z,55.73
2023-03-03T22:54:20.388Z,54.10
2023-03-03T22:56:47.973Z,55.08
2023-03-03T22:59:15.541Z,56.13
2023-03-03T23:01:43.211Z,56.18
2023-03-03T23:04:10.953Z,54.00
2023-03-03T23:06:38.740Z,54.67
2023-03-03T23:09:07.408Z,54.50
2023-03-03T23:11:35.063Z,54.85
2023-03-03T23:14:02.743Z,56.20
2023-03-03T23:16:30.421Z,55.45
2023-03-03T23:18:58.049Z,50.23
2023-03-03T23:21:25.775Z,46.95
2023-03-03T23:23:53.374Z,48.00
2023-03-03T23:26:21.242Z,43.45
2023-03-03T23:28:48.794Z,42.88
2023-03-03T23:31:16.501Z,41.33
2023-03-03T23:33:44.025Z,40.28
2023-03-03T23:36:12.614Z,43.28
2023-03-03T23:38:42.709Z,42.85
2023-03-03T23:41:09.905Z,43.48
2023-03-03T23:43:37.489Z,41.95
2023-03-03T23:46:05.280Z,42.98
2023-03-03T23:48:32.955Z,43.50
2023-03-03T23:51:01.036Z,44.58
2023-03-03T23:53:28.783Z,43.63
2023-03-03T23:55:56.487Z,46.05
2023-03-03T23:58:23.910Z,51.95
